TimeAKDT,TemperatureF,Dew PointF,Humidity,Sea Level PressureIn,VisibilityMPH,Wind Direction,Wind SpeedMPH,Gust SpeedMPH,PrecipitationIn,Events,Conditions,WindDirDegrees,DateUTC
12:53 AM,52.0,50.0,93,30.27,10.0,WNW,8.1,-,N/A,,Clear,300,2012-10-07 08:53:00
1:53 AM,51.1,50.0,96,30.26,10.0,WNW,8.1,-,N/A,,Clear,300,2012-10-07 09:53:00
2:53 AM,51.1,50.0,96,30.25,10.0,NW,8.1,-,N/A,,Clear,310,2012-10-07 10:53:00
3:53 AM,52.0,50.0,93,30.24,10.0,WNW,11.5,-,N/A,,Clear,300,2012-10-07 11:53:00
4:53 AM,51.1,48.9,92,30.23,10.0,WNW,9.2,-,N/A,,Clear,300,2012-10-07 12:53:00
5:53 AM,51.1,48.9,92,30.23,10.0,WNW,9.2,-,N/A,,Clear,300,2012-10-07 13:53:00
6:51 AM,50.0,48.2,94,30.22,10.0,WNW,8.1,-,N/A,,Partly Cloudy,300,2012-10-07 14:51:00
6:53 AM,50.0,48.9,96,30.23,10.0,WNW,9.2,-,N/A,,Partly Cloudy,290,2012-10-07 14:53:00
7:53 AM,51.1,48.9,92,30.23,10.0,NW,10.4,-,N/A,,Clear,320,2012-10-07 15:53:00
8:53 AM,53.1,50.0,89,30.23,10.0,NNW,16.1,-,N/A,,Clear,330,2012-10-07 16:53:00
9:01 AM,53.6,50.0,88,30.23,10.0,NW,10.4,-,N/A,,Partly Cloudy,310,2012-10-07 17:01:00
9:53 AM,55.0,50.0,83,30.22,10.0,NW,12.7,-,N/A,,Partly Cloudy,320,2012-10-07 17:53:00
10:53 AM,55.0,50.0,83,30.20,10.0,NW,13.8,-,N/A,,Clear,320,2012-10-07 18:53:00
11:53 AM,55.9,50.0,80,30.20,10.0,NNW,13.8,-,N/A,,Clear,330,2012-10-07 19:53:00
12:53 PM,59.0,50.0,72,30.19,10.0,NW,9.2,-,N/A,,Clear,320,2012-10-07 20:53:00
1:53 PM,57.0,48.9,74,30.18,10.0,NW,10.4,-,N/A,,Clear,310,2012-10-07 21:53:00
2:53 PM,55.9,48.9,77,30.17,10.0,NW,12.7,-,N/A,,Clear,310,2012-10-07 22:53:00
3:53 PM,60.1,48.0,64,30.15,10.0,North,17.3,-,N/A,,Clear,350,2012-10-07 23:53:00
4:53 PM,57.0,48.0,72,30.14,10.0,NNW,17.3,-,N/A,,Clear,330,2012-10-08 00:53:00
5:53 PM,55.9,48.0,75,30.12,10.0,NW,10.4,-,N/A,,Clear,320,2012-10-08 01:53:00
6:53 PM,57.0,46.9,69,30.12,10.0,NNW,6.9,-,N/A,,Clear,330,2012-10-08 02:53:00
7:53 PM,57.0,46.9,69,30.13,10.0,NW,4.6,-,N/A,,Clear,320,2012-10-08 03:53:00
8:53 PM,55.9,46.9,72,30.12,10.0,NW,15.0,-,N/A,,Clear,310,2012-10-08 04:53:00
9:53 PM,55.9,46.9,72,30.11,10.0,NW,11.5,23.0,N/A,,Clear,310,2012-10-08 05:53:00
10:53 PM,55.0,46.9,74,30.11,10.0,NW,11.5,19.6,N/A,,Clear,320,2012-10-08 06:53:00
11:53 PM,54.0,46.0,75,30.10,10.0,NW,10.4,19.6,N/A,,Clear,310,2012-10-08 07:53:00